Time;durP1;ratioP1;P1;durP2;ratioP2;P2;SDS_P1;SDS_P2;PMS_P1;PMS_P2;Temp;Humidity;BMP_temperature;BMP_pressure;BME280_temperature;BME280_humidity;BME280_pressure;Samples;Min_cycle;Max_cycle;Signal;HPM_P1;HPM_P2
2023/12/09 00:01:29;;;;;;;28.00;10.45;;;;;;;;;;5005775;28;20037;-87
2023/12/09 00:03:55;;;;;;;25.35;10.20;;;;;;;;;;4999067;28;20042;-87
2023/12/09 00:06:22;;;;;;;27.00;9.68;;;;;;;;;;5005983;28;20030;-87
2023/12/09 00:08:50;;;;;;;26.15;9.98;;;;;;;;;;5006318;28;20076;-87
2023/12/09 00:11:16;;;;;;;22.15;10.27;;;;;;;;;;4991420;28;20520;-86
2023/12/09 00:13:42;;;;;;;23.50;10.32;;;;;;;;;;5006960;28;20050;-86
2023/12/09 00:16:08;;;;;;;22.42;9.52;;;;;;;;;;4990255;28;20725;-86
2023/12/09 00:18:34;;;;;;;19.98;10.27;;;;;;;;;;5007330;28;20046;-87
2023/12/09 00:21:00;;;;;;;24.10;9.77;;;;;;;;;;5006986;28;20029;-87
2023/12/09 00:23:26;;;;;;;21.13;8.77;;;;;;;;;;5004846;28;20048;-86
2023/12/09 00:25:52;;;;;;;20.35;8.75;;;;;;;;;;4990956;28;20045;-86
2023/12/09 00:28:18;;;;;;;20.65;8.95;;;;;;;;;;4990845;28;20034;-86
2023/12/09 00:30:44;;;;;;;21.52;9.25;;;;;;;;;;4991727;28;20072;-86
2023/12/09 00:33:10;;;;;;;24.13;10.27;;;;;;;;;;4989774;28;20038;-86
2023/12/09 00:35:36;;;;;;;19.30;7.93;;;;;;;;;;4990118;28;20042;-86
2023/12/09 00:38:02;;;;;;;20.70;8.95;;;;;;;;;;5007341;28;20100;-86
2023/12/09 00:40:28;;;;;;;23.27;9.82;;;;;;;;;;5007928;28;20042;-86
2023/12/09 00:42:54;;;;;;;19.40;9.57;;;;;;;;;;4991387;28;20151;-87
2023/12/09 00:45:20;;;;;;;20.10;7.60;;;;;;;;;;4999981;28;20050;-86
2023/12/09 00:47:46;;;;;;;19.08;8.02;;;;;;;;;;5006963;28;22511;-86
2023/12/09 00:50:12;;;;;;;18.48;8.95;;;;;;;;;;4989794;28;20595;-86
2023/12/09 00:52:38;;;;;;;19.75;8.23;;;;;;;;;;5003740;28;20071;-87
2023/12/09 00:55:05;;;;;;;18.38;8.07;;;;;;;;;;5003257;28;20049;-86
2023/12/09 00:57:31;;;;;;;25.23;11.10;;;;;;;;;;5005411;28;20046;-86
2023/12/09 00:59:58;;;;;;;20.75;9.07;;;;;;;;;;5006979;28;20132;-87
2023/12/09 01:02:24;;;;;;;19.38;8.60;;;;;;;;;;5002612;28;20072;-86
2023/12/09 01:04:50;;;;;;;27.15;10.77;;;;;;;;;;4990037;28;20057;-86
2023/12/09 01:07:16;;;;;;;25.65;9.57;;;;;;;;;;4990318;28;20125;-87
2023/12/09 01:09:42;;;;;;;20.58;8.15;;;;;;;;;;4990376;28;20125;-87
2023/12/09 01:12:08;;;;;;;25.08;8.93;;;;;;;;;;4988700;28;20046;-86
2023/12/09 01:14:34;;;;;;;20.55;9.90;;;;;;;;;;5006222;28;20042;-86
2023/12/09 01:17:00;;;;;;;20.55;8.73;;;;;;;;;;5006035;28;20133;-86
2023/12/09 01:19:26;;;;;;;18.65;8.73;;;;;;;;;;5021883;28;20534;-86
2023/12/09 01:21:52;;;;;;;23.17;10.38;;;;;;;;;;5005008;28;20046;-86
2023/12/09 01:24:18;;;;;;;26.08;9.85;;;;;;;;;;5005752;28;20100;-86
2023/12/09 01:26:44;;;;;;;19.30;8.98;;;;;;;;;;5001491;28;20480;-86
2023/12/09 01:29:10;;;;;;;19.73;8.68;;;;;;;;;;4988739;28;20069;-86
2023/12/09 01:31:36;;;;;;;19.73;8.73;;;;;;;;;;5005314;28;20084;-86
2023/12/09 01:34:02;;;;;;;18.05;8.07;;;;;;;;;;5004614;28;20046;-86
2023/12/09 01:36:28;;;;;;;14.80;8.27;;;;;;;;;;5000375;28;20475;-87
2023/12/09 01:38:54;;;;;;;22.17;10.07;;;;;;;;;;5005798;28;20401;-86
2023/12/09 01:41:20;;;;;;;19.92;9.45;;;;;;;;;;4990189;28;20034;-86
2023/12/09 01:43:47;;;;;;;18.08;9.07;;;;;;;;;;4988382;28;20038;-86
2023/12/09 01:46:13;;;;;;;24.50;9.27;;;;;;;;;;5004869;28;20528;-86
2023/12/09 01:48:39;;;;;;;19.10;9.70;;;;;;;;;;4991007;28;20129;-86
2023/12/09 01:51:06;;;;;;;24.58;8.38;;;;;;;;;;5028059;28;20047;-86
2023/12/09 01:53:33;;;;;;;19.25;8.52;;;;;;;;;;5024381;28;20453;-86
2023/12/09 01:56:00;;;;;;;20.52;9.55;;;;;;;;;;5013305;28;20403;-86
2023/12/09 01:58:26;;;;;;;17.35;8.25;;;;;;;;;;5026593;28;20045;-86
2023/12/09 02:00:53;;;;;;;19.75;9.65;;;;;;;;;;5013339;28;20129;-86
2023/12/09 02:03:19;;;;;;;18.23;9.55;;;;;;;;;;5013708;28;20041;-86
2023/12/09 02:05:45;;;;;;;18.35;8.23;;;;;;;;;;5011255;28;20072;-86
2023/12/09 02:08:11;;;;;;;18.63;8.45;;;;;;;;;;5026911;28;20037;-86
2023/12/09 02:10:38;;;;;;;15.05;8.43;;;;;;;;;;5013990;28;20029;-86
2023/12/09 02:13:16;;;;;;;16.27;8.35;;;;;;;;;;5012166;28;20044;-86
2023/12/09 02:15:48;;;;;;;20.70;7.97;;;;;;;;;;5031258;28;20551;-86
2023/12/09 02:18:15;;;;;;;20.77;7.65;;;;;;;;;;5033291;28;20127;-86
2023/12/09 02:20:41;;;;;;;17.38;7.28;;;;;;;;;;5031859;28;20064;-86
2023/12/09 02:23:08;;;;;;;22.98;8.70;;;;;;;;;;5031653;28;20464;-87
2023/12/09 02:25:34;;;;;;;20.30;9.43;;;;;;;;;;5018959;28;20033;-87
2023/12/09 02:28:03;;;;;;;20.13;9.63;;;;;;;;;;5030991;28;20415;-86
2023/12/09 02:30:32;;;;;;;21.95;9.65;;;;;;;;;;5017173;28;20506;-86
2023/12/09 02:32:59;;;;;;;15.95;7.57;;;;;;;;;;5014777;28;20094;-86
2023/12/09 02:35:25;;;;;;;20.77;8.50;;;;;;;;;;5017279;28;20029;-86
2023/12/09 02:37:52;;;;;;;15.75;7.75;;;;;;;;;;5032363;28;20549;-86
2023/12/09 02:40:19;;;;;;;25.02;8.15;;;;;;;;;;5031611;28;20148;-86
2023/12/09 02:42:45;;;;;;;15.35;7.53;;;;;;;;;;5016685;28;20036;-86
2023/12/09 02:45:11;;;;;;;22.10;8.38;;;;;;;;;;5032608;28;20377;-86
2023/12/09 02:47:37;;;;;;;18.77;7.43;;;;;;;;;;5027962;28;20044;-86
2023/12/09 02:50:04;;;;;;;21.77;7.70;;;;;;;;;;5029896;28;20045;-86
2023/12/09 02:52:30;;;;;;;18.55;9.10;;;;;;;;;;5016955;28;20045;-86
2023/12/09 02:54:56;;;;;;;14.93;7.28;;;;;;;;;;5016663;28;20174;-86
2023/12/09 02:57:22;;;;;;;15.25;7.63;;;;;;;;;;5031875;28;20037;-86
2023/12/09 02:59:47;;;;;;;16.88;8.27;;;;;;;;;;5030565;28;20033;-86
2023/12/09 03:02:14;;;;;;;16.92;8.40;;;;;;;;;;5013956;28;20409;-86
2023/12/09 03:04:40;;;;;;;19.25;9.10;;;;;;;;;;5030795;28;20052;-86
2023/12/09 03:07:06;;;;;;;17.75;8.48;;;;;;;;;;5015765;28;20041;-86
2023/12/09 03:09:32;;;;;;;17.38;7.10;;;;;;;;;;5016692;28;20036;-86
2023/12/09 03:11:58;;;;;;;15.85;7.75;;;;;;;;;;5029600;28;20194;-86
2023/12/09 03:14:24;;;;;;;19.15;7.22;;;;;;;;;;5030103;28;20048;-86
2023/12/09 03:16:50;;;;;;;16.52;7.03;;;;;;;;;;5012995;28;20064;-86
2023/12/09 03:19:16;;;;;;;17.10;6.85;;;;;;;;;;5031250;28;20068;-85
2023/12/09 03:21:42;;;;;;;25.75;10.02;;;;;;;;;;5014766;28;20041;-86
2023/12/09 03:24:08;;;;;;;17.08;7.35;;;;;;;;;;5013189;28;20036;-87
2023/12/09 03:26:34;;;;;;;16.92;8.95;;;;;;;;;;5011829;28;20037;-86
2023/12/09 03:29:00;;;;;;;19.30;9.35;;;;;;;;;;5014862;28;20408;-86
2023/12/09 03:31:26;;;;;;;14.88;7.15;;;;;;;;;;5027585;28;20132;-86
2023/12/09 03:33:52;;;;;;;18.52;8.23;;;;;;;;;;5015097;28;20127;-86
2023/12/09 03:36:18;;;;;;;19.23;8.70;;;;;;;;;;5016268;28;20408;-86
2023/12/09 03:38:44;;;;;;;16.92;7.63;;;;;;;;;;5031651;28;20033;-86
2023/12/09 03:41:10;;;;;;;19.35;7.80;;;;;;;;;;5031078;28;20048;-86
2023/12/09 03:43:36;;;;;;;16.98;7.40;;;;;;;;;;5031009;28;20033;-86
2023/12/09 03:46:03;;;;;;;13.45;7.05;;;;;;;;;;5027711;28;20119;-86
2023/12/09 03:48:29;;;;;;;16.73;7.57;;;;;;;;;;5031082;28;20045;-86
2023/12/09 03:50:55;;;;;;;13.13;6.13;;;;;;;;;;5027339;28;20515;-86
2023/12/09 03:53:21;;;;;;;25.90;9.40;;;;;;;;;;5029452;28;20048;-86
2023/12/09 03:55:49;;;;;;;21.50;8.07;;;;;;;;;;5028370;28;20047;-86
2023/12/09 03:58:15;;;;;;;15.55;7.82;;;;;;;;;;5030114;28;20558;-86
2023/12/09 04:00:41;;;;;;;14.68;6.90;;;;;;;;;;5031409;28;20408;-86
2023/12/09 04:03:08;;;;;;;22.25;9.07;;;;;;;;;;5030401;28;20033;-86
2023/12/09 04:05:34;;;;;;;18.52;7.10;;;;;;;;;;5046351;28;20048;-86
2023/12/09 04:08:00;;;;;;;21.30;7.45;;;;;;;;;;5030743;28;20189;-85
2023/12/09 04:10:26;;;;;;;16.52;6.28;;;;;;;;;;5031121;28;20081;-86
2023/12/09 04:12:52;;;;;;;15.70;6.70;;;;;;;;;;5029978;28;20139;-86
2023/12/09 04:15:18;;;;;;;16.85;6.88;;;;;;;;;;5015949;28;20154;-86
2023/12/09 04:17:44;;;;;;;17.38;6.90;;;;;;;;;;5013236;28;20688;-86
2023/12/09 04:20:10;;;;;;;21.48;8.07;;;;;;;;;;5029049;28;20044;-85
2023/12/09 04:22:37;;;;;;;15.52;7.30;;;;;;;;;;5014402;28;20051;-86
2023/12/09 04:25:04;;;;;;;14.90;7.03;;;;;;;;;;5044236;28;20055;-86
2023/12/09 04:27:32;;;;;;;16.23;6.68;;;;;;;;;;5034144;28;20228;-86
2023/12/09 04:29:58;;;;;;;15.88;6.65;;;;;;;;;;5030296;28;20045;-86
2023/12/09 04:32:24;;;;;;;20.60;7.57;;;;;;;;;;5021392;28;20040;-85
2023/12/09 04:34:50;;;;;;;8.55;4.43;;;;;;;;;;5036827;28;20508;-85
2023/12/09 04:37:16;;;;;;;15.98;5.90;;;;;;;;;;5017592;28;20064;-86
2023/12/09 04:39:42;;;;;;;13.50;6.40;;;;;;;;;;5038661;28;20096;-86
2023/12/09 04:42:08;;;;;;;12.50;6.10;;;;;;;;;;5041365;28;20040;-86
2023/12/09 04:44:34;;;;;;;19.23;6.70;;;;;;;;;;5023539;28;20034;-86
2023/12/09 04:47:00;;;;;;;15.00;6.63;;;;;;;;;;5037449;28;20049;-86
2023/12/09 04:49:26;;;;;;;12.52;6.45;;;;;;;;;;5032564;28;20072;-85
2023/12/09 04:51:52;;;;;;;18.10;6.80;;;;;;;;;;5014040;28;20118;-85
2023/12/09 04:54:18;;;;;;;11.80;5.03;;;;;;;;;;5029871;28;20045;-86
2023/12/09 04:56:44;;;;;;;13.38;6.50;;;;;;;;;;5028955;28;20041;-85
2023/12/09 04:59:10;;;;;;;19.58;6.32;;;;;;;;;;5012782;28;20037;-85
2023/12/09 05:01:36;;;;;;;17.55;5.30;;;;;;;;;;5014447;28;20035;-86
2023/12/09 05:04:02;;;;;;;14.35;6.03;;;;;;;;;;5027172;28;20126;-85
2023/12/09 05:06:28;;;;;;;13.82;5.70;;;;;;;;;;5030847;28;20043;-86
2023/12/09 05:08:54;;;;;;;14.40;6.57;;;;;;;;;;5012752;28;20041;-86
2023/12/09 05:11:20;;;;;;;12.75;6.05;;;;;;;;;;5029349;28;20609;-85
2023/12/09 05:13:46;;;;;;;22.00;7.18;;;;;;;;;;5029675;28;20071;-86
2023/12/09 05:16:12;;;;;;;17.02;6.82;;;;;;;;;;5027227;28;20052;-85
2023/12/09 05:18:38;;;;;;;15.70;5.85;;;;;;;;;;5014519;28;20641;-85
2023/12/09 05:21:07;;;;;;;11.07;4.97;;;;;;;;;;5026870;28;20128;-85
2023/12/09 05:23:34;;;;;;;19.92;6.90;;;;;;;;;;5028304;28;20159;-86
2023/12/09 05:26:00;;;;;;;18.55;7.45;;;;;;;;;;5026766;28;20041;-86
2023/12/09 05:28:26;;;;;;;16.27;6.15;;;;;;;;;;5028945;28;20071;-85
2023/12/09 05:30:52;;;;;;;17.90;7.05;;;;;;;;;;5027192;28;20041;-86
2023/12/09 05:33:18;;;;;;;14.77;5.93;;;;;;;;;;5028837;28;20486;-85
2023/12/09 05:35:44;;;;;;;18.42;7.43;;;;;;;;;;5028239;28;20072;-85
2023/12/09 05:38:10;;;;;;;13.23;6.13;;;;;;;;;;5029424;28;20144;-85
2023/12/09 05:40:37;;;;;;;17.67;6.53;;;;;;;;;;5028562;28;20583;-84
2023/12/09 05:43:03;;;;;;;19.02;6.97;;;;;;;;;;5028522;28;20060;-85
2023/12/09 05:45:29;;;;;;;14.40;7.07;;;;;;;;;;5029209;28;20040;-85
2023/12/09 05:47:56;;;;;;;16.90;7.78;;;;;;;;;;5027699;28;20040;-85
2023/12/09 05:50:22;;;;;;;17.77;7.75;;;;;;;;;;5024075;28;20084;-85
2023/12/09 05:52:48;;;;;;;14.65;6.65;;;;;;;;;;5026939;28;20046;-85
2023/12/09 05:55:17;;;;;;;16.17;6.68;;;;;;;;;;5026205;28;20124;-85
2023/12/09 05:57:44;;;;;;;17.08;6.82;;;;;;;;;;5027240;28;20037;-85
2023/12/09 06:00:12;;;;;;;19.55;6.80;;;;;;;;;;5022204;28;20037;-86
2023/12/09 06:02:40;;;;;;;20.30;6.70;;;;;;;;;;5027365;28;20045;-85
2023/12/09 06:05:07;;;;;;;16.88;7.03;;;;;;;;;;5025520;28;20037;-85
2023/12/09 06:07:33;;;;;;;17.40;6.35;;;;;;;;;;5012293;28;20045;-85
2023/12/09 06:09:59;;;;;;;18.75;5.72;;;;;;;;;;5026367;28;20041;-85
2023/12/09 06:12:25;;;;;;;15.00;6.63;;;;;;;;;;5027293;28;20052;-85
2023/12/09 06:14:51;;;;;;;16.40;6.43;;;;;;;;;;5027485;28;20037;-85
2023/12/09 06:17:17;;;;;;;13.52;5.93;;;;;;;;;;5014363;28;20040;-86
2023/12/09 06:19:43;;;;;;;12.25;5.43;;;;;;;;;;5011696;28;20040;-85
2023/12/09 06:22:10;;;;;;;15.30;7.03;;;;;;;;;;5024358;28;20431;-85
2023/12/09 06:24:36;;;;;;;15.02;6.30;;;;;;;;;;5024706;28;20401;-86
2023/12/09 06:27:03;;;;;;;16.27;6.32;;;;;;;;;;5010812;28;20037;-86
2023/12/09 06:29:29;;;;;;;18.10;6.65;;;;;;;;;;5045757;28;20049;-87
2023/12/09 06:31:55;;;;;;;15.30;6.22;;;;;;;;;;5024517;28;20052;-86
2023/12/09 06:34:21;;;;;;;15.13;5.03;;;;;;;;;;5008799;28;20049;-84
2023/12/09 06:36:47;;;;;;;15.02;6.25;;;;;;;;;;5023580;28;20361;-85
2023/12/09 06:39:13;;;;;;;9.73;5.07;;;;;;;;;;5008621;28;20037;-84
2023/12/09 06:41:40;;;;;;;14.55;6.50;;;;;;;;;;5027103;28;20410;-85
2023/12/09 06:44:06;;;;;;;16.77;6.22;;;;;;;;;;5025381;28;20377;-83
2023/12/09 06:46:32;;;;;;;18.50;6.60;;;;;;;;;;5030513;28;20052;-85
2023/12/09 06:48:58;;;;;;;13.65;6.45;;;;;;;;;;5024314;28;20049;-84
2023/12/09 06:51:24;;;;;;;12.80;6.00;;;;;;;;;;5025401;28;20045;-83
2023/12/09 06:53:50;;;;;;;11.63;5.90;;;;;;;;;;5024496;28;20037;-83
2023/12/09 06:56:19;;;;;;;14.73;6.10;;;;;;;;;;5027164;28;20032;-85
2023/12/09 06:58:45;;;;;;;18.08;6.75;;;;;;;;;;5021536;28;20048;-84
2023/12/09 07:01:21;;;;;;;13.98;6.20;;;;;;;;;;5023560;28;20033;-84
2023/12/09 07:03:48;;;;;;;19.58;6.82;;;;;;;;;;5047933;28;20511;-84
2023/12/09 07:06:15;;;;;;;16.98;6.68;;;;;;;;;;5024644;28;20072;-84
2023/12/09 07:08:41;;;;;;;9.02;4.00;;;;;;;;;;5043629;28;20186;-85
2023/12/09 07:11:09;;;;;;;14.07;5.00;;;;;;;;;;5041757;28;20508;-88
2023/12/09 07:13:35;;;;;;;13.57;5.75;;;;;;;;;;5044182;28;20089;-85
2023/12/09 07:16:03;;;;;;;9.80;5.05;;;;;;;;;;5021762;28;20051;-86
2023/12/09 07:18:29;;;;;;;10.50;5.32;;;;;;;;;;5023978;28;20048;-86
2023/12/09 07:20:55;;;;;;;8.57;4.65;;;;;;;;;;5014365;28;20049;-86
2023/12/09 07:23:21;;;;;;;17.10;4.72;;;;;;;;;;5027788;28;20043;-87
2023/12/09 07:25:47;;;;;;;17.08;6.35;;;;;;;;;;5027572;28;20139;-86
2023/12/09 07:28:13;;;;;;;14.73;5.45;;;;;;;;;;5026213;28;20029;-84
2023/12/09 07:30:39;;;;;;;13.68;4.07;;;;;;;;;;5031670;28;20428;-88
2023/12/09 07:33:08;;;;;;;10.75;3.63;;;;;;;;;;5027225;28;20591;-92
2023/12/09 07:35:35;;;;;;;14.15;4.55;;;;;;;;;;5032219;28;20570;-89
2023/12/09 07:38:01;;;;;;;15.55;5.60;;;;;;;;;;5031403;28;20083;-90
2023/12/09 07:40:27;;;;;;;14.20;5.97;;;;;;;;;;5007024;28;20033;-90
2023/12/09 07:42:53;;;;;;;13.60;5.10;;;;;;;;;;5010725;28;20126;-90
2023/12/09 07:45:19;;;;;;;12.35;5.53;;;;;;;;;;5009154;28;20063;-88
2023/12/09 07:47:45;;;;;;;12.10;4.85;;;;;;;;;;5030489;28;20033;-88
2023/12/09 07:50:11;;;;;;;16.88;5.53;;;;;;;;;;5009480;28;20137;-88
2023/12/09 07:52:37;;;;;;;14.40;5.47;;;;;;;;;;5025408;28;20072;-88
2023/12/09 07:55:03;;;;;;;14.52;4.97;;;;;;;;;;5026744;28;20072;-88
2023/12/09 07:57:29;;;;;;;13.10;5.18;;;;;;;;;;5028155;28;20033;-87
2023/12/09 07:59:55;;;;;;;11.52;4.88;;;;;;;;;;5010453;28;20036;-86
2023/12/09 08:02:21;;;;;;;12.63;4.07;;;;;;;;;;5009933;28;20037;-85
2023/12/09 08:04:47;;;;;;;11.02;5.45;;;;;;;;;;5024866;28;20033;-85
2023/12/09 08:07:13;;;;;;;12.32;4.63;;;;;;;;;;5030509;28;20136;-85
2023/12/09 08:09:39;;;;;;;11.10;4.47;;;;;;;;;;5030494;28;20044;-85
2023/12/09 08:12:05;;;;;;;11.85;4.82;;;;;;;;;;5028001;28;20068;-85
2023/12/09 08:14:31;;;;;;;8.15;3.70;;;;;;;;;;5026208;28;20041;-85
2023/12/09 08:16:57;;;;;;;7.78;3.70;;;;;;;;;;5026178;28;20044;-85
2023/12/09 08:19:23;;;;;;;8.30;4.10;;;;;;;;;;5023024;28;20037;-85
2023/12/09 08:21:49;;;;;;;12.40;3.55;;;;;;;;;;5042845;28;20119;-85
2023/12/09 08:24:15;;;;;;;8.02;2.72;;;;;;;;;;5026436;28;20033;-86
2023/12/09 08:26:42;;;;;;;9.25;3.47;;;;;;;;;;5023899;28;20055;-86
2023/12/09 08:29:14;;;;;;;11.63;3.17;;;;;;;;;;5011395;28;20064;-86
2023/12/09 08:31:40;;;;;;;9.45;3.85;;;;;;;;;;5024313;28;20119;-86
2023/12/09 08:34:06;;;;;;;8.13;2.70;;;;;;;;;;5012809;28;20098;-86
2023/12/09 08:36:32;;;;;;;9.90;3.30;;;;;;;;;;5027927;28;20041;-86
2023/12/09 08:38:58;;;;;;;13.88;4.25;;;;;;;;;;5012919;28;20128;-85
2023/12/09 08:41:24;;;;;;;7.53;3.38;;;;;;;;;;5003651;28;20033;-85
2023/12/09 08:43:52;;;;;;;10.35;3.33;;;;;;;;;;5012363;28;20035;-85
2023/12/09 08:46:18;;;;;;;14.70;4.40;;;;;;;;;;5021961;28;20046;-85
2023/12/09 08:48:45;;;;;;;5.95;2.70;;;;;;;;;;5026411;28;20044;-85
2023/12/09 08:51:11;;;;;;;10.18;2.53;;;;;;;;;;5027596;28;20056;-85
2023/12/09 08:53:37;;;;;;;9.23;2.92;;;;;;;;;;5025604;28;20476;-85
2023/12/09 08:56:03;;;;;;;8.02;2.95;;;;;;;;;;5023687;28;20068;-85
2023/12/09 08:58:29;;;;;;;7.18;3.00;;;;;;;;;;5025091;28;20086;-86
2023/12/09 09:00:55;;;;;;;10.32;3.00;;;;;;;;;;5024950;28;20135;-86
2023/12/09 09:03:21;;;;;;;10.55;3.35;;;;;;;;;;5012730;28;20041;-87
2023/12/09 09:05:48;;;;;;;9.73;2.70;;;;;;;;;;5029345;28;20102;-87
2023/12/09 09:08:14;;;;;;;4.53;2.67;;;;;;;;;;5027158;28;20042;-87
2023/12/09 09:10:40;;;;;;;9.82;3.42;;;;;;;;;;5023066;28;20044;-86
2023/12/09 09:13:06;;;;;;;7.43;2.28;;;;;;;;;;5004423;28;20045;-85
2023/12/09 09:15:33;;;;;;;6.82;2.40;;;;;;;;;;5026454;28;20087;-83
2023/12/09 09:17:59;;;;;;;7.60;2.40;;;;;;;;;;5043687;28;20037;-84
2023/12/09 09:20:25;;;;;;;9.02;2.67;;;;;;;;;;5028127;28;20495;-84
2023/12/09 09:22:51;;;;;;;7.63;2.55;;;;;;;;;;5011918;28;20043;-84
2023/12/09 09:25:17;;;;;;;10.65;2.55;;;;;;;;;;5026030;28;20049;-84
2023/12/09 09:27:43;;;;;;;8.70;2.30;;;;;;;;;;5026156;28;20092;-84
2023/12/09 09:30:09;;;;;;;11.05;2.78;;;;;;;;;;5025899;28;20037;-84
2023/12/09 09:32:35;;;;;;;8.73;2.95;;;;;;;;;;5028359;28;20056;-84
2023/12/09 09:35:02;;;;;;;4.80;1.85;;;;;;;;;;5025699;28;20040;-84
2023/12/09 09:37:28;;;;;;;8.30;2.90;;;;;;;;;;5012002;28;20045;-83
2023/12/09 09:39:54;;;;;;;11.27;2.70;;;;;;;;;;5041250;28;20546;-85
2023/12/09 09:42:25;;;;;;;5.38;2.00;;;;;;;;;;5049074;28;20044;-86
2023/12/09 09:44:51;;;;;;;;;;;;;;;;;;5025865;28;20505;-85
2023/12/09 09:47:18;;;;;;;7.95;1.85;;;;;;;;;;5046249;28;19916;-85
2023/12/09 09:49:45;;;;;;;5.65;2.05;;;;;;;;;;5027625;28;20527;-86
2023/12/09 09:52:12;;;;;;;5.95;1.92;;;;;;;;;;5007486;28;20045;-86
2023/12/09 09:54:39;;;;;;;4.10;1.83;;;;;;;;;;5030571;28;20496;-87
2023/12/09 09:57:07;;;;;;;8.18;1.92;;;;;;;;;;5025691;28;20060;-86
2023/12/09 09:59:33;;;;;;;2.78;1.23;;;;;;;;;;5025541;28;20049;-87
2023/12/09 10:02:00;;;;;;;6.07;1.83;;;;;;;;;;5027848;28;20037;-87
2023/12/09 10:04:26;;;;;;;7.90;2.50;;;;;;;;;;5028881;28;20029;-84
2023/12/09 10:06:54;;;;;;;10.27;3.20;;;;;;;;;;5028920;28;20488;-85
2023/12/09 10:09:20;;;;;;;5.30;2.00;;;;;;;;;;5046014;28;20134;-86
2023/12/09 10:11:46;;;;;;;7.00;2.00;;;;;;;;;;5023554;28;20045;-86
2023/12/09 10:14:12;;;;;;;8.00;1.98;;;;;;;;;;5004497;28;20636;-86
2023/12/09 10:16:38;;;;;;;4.80;1.63;;;;;;;;;;5023413;28;20393;-85
2023/12/09 10:19:08;;;;;;;7.38;2.42;;;;;;;;;;5029874;28;20045;-85
2023/12/09 10:21:34;;;;;;;6.70;1.70;;;;;;;;;;5020794;28;20503;-85
2023/12/09 10:24:00;;;;;;;4.20;1.92;;;;;;;;;;5006892;28;20080;-85
2023/12/09 10:26:26;;;;;;;4.97;1.58;;;;;;;;;;5025392;28;20068;-86
2023/12/09 10:28:52;;;;;;;7.88;2.13;;;;;;;;;;5021621;28;20607;-86
2023/12/09 10:31:18;;;;;;;8.30;2.42;;;;;;;;;;5027524;28;20416;-85
2023/12/09 10:33:45;;;;;;;5.00;1.50;;;;;;;;;;5012570;28;20117;-85
2023/12/09 10:36:11;;;;;;;4.40;1.60;;;;;;;;;;5013475;28;20045;-85
2023/12/09 10:38:41;;;;;;;4.70;2.17;;;;;;;;;;5012894;28;20037;-85
2023/12/09 10:41:07;;;;;;;10.65;2.75;;;;;;;;;;5030068;28;20037;-86
2023/12/09 10:43:33;;;;;;;9.73;2.85;;;;;;;;;;5013922;28;20040;-86
2023/12/09 10:45:59;;;;;;;5.22;2.10;;;;;;;;;;5010472;28;20118;-85
2023/12/09 10:48:25;;;;;;;5.63;2.20;;;;;;;;;;5028519;28;20061;-85
2023/12/09 10:50:51;;;;;;;9.07;2.28;;;;;;;;;;5026678;28;20053;-86
2023/12/09 10:53:17;;;;;;;7.80;2.30;;;;;;;;;;5031009;28;20114;-85
2023/12/09 10:55:44;;;;;;;7.82;2.47;;;;;;;;;;5027160;28;20060;-85
2023/12/09 10:58:11;;;;;;;7.45;2.47;;;;;;;;;;5026224;28;20641;-85
2023/12/09 11:00:37;;;;;;;5.97;1.58;;;;;;;;;;5027987;28;20099;-85
2023/12/09 11:03:03;;;;;;;3.83;1.85;;;;;;;;;;5025502;28;20052;-85
2023/12/09 11:05:30;;;;;;;7.97;2.50;;;;;;;;;;5028760;28;20037;-86
2023/12/09 11:07:58;;;;;;;6.20;2.42;;;;;;;;;;5031150;28;20492;-86
2023/12/09 11:10:25;;;;;;;4.47;2.35;;;;;;;;;;5028457;28;20045;-85
2023/12/09 11:12:50;;;;;;;6.53;2.28;;;;;;;;;;5025500;28;20040;-86
2023/12/09 11:15:19;;;;;;;5.38;2.40;;;;;;;;;;5029236;28;20131;-86
2023/12/09 11:17:47;;;;;;;11.27;2.35;;;;;;;;;;5027930;28;20080;-87
2023/12/09 11:20:18;;;;;;;5.40;1.98;;;;;;;;;;5032082;28;20496;-87
2023/12/09 11:22:45;;;;;;;4.38;2.00;;;;;;;;;;5029889;28;20084;-88
2023/12/09 11:25:12;;;;;;;8.52;2.05;;;;;;;;;;5028700;28;20089;-87
2023/12/09 11:27:38;;;;;;;5.85;1.65;;;;;;;;;;5028127;28;20874;-86
2023/12/09 11:30:05;;;;;;;6.30;2.28;;;;;;;;;;5030465;28;20048;-87
2023/12/09 11:32:31;;;;;;;5.28;2.63;;;;;;;;;;5030569;28;20048;-88
2023/12/09 11:34:58;;;;;;;3.30;1.63;;;;;;;;;;5031063;28;20407;-87
2023/12/09 11:37:28;;;;;;;4.82;1.98;;;;;;;;;;5028640;28;20041;-87
2023/12/09 11:39:58;;;;;;;3.35;1.60;;;;;;;;;;5019065;28;20167;-86
2023/12/09 11:42:25;;;;;;;3.20;1.40;;;;;;;;;;5013975;28;20163;-87
2023/12/09 11:44:51;;;;;;;6.53;2.20;;;;;;;;;;5028500;28;20044;-88
2023/12/09 11:47:19;;;;;;;3.45;2.03;;;;;;;;;;5009125;28;20106;-87
2023/12/09 11:49:47;;;;;;;5.00;1.73;;;;;;;;;;5026298;28;20049;-87
2023/12/09 11:52:13;;;;;;;6.70;2.10;;;;;;;;;;5025250;28;20042;-88
2023/12/09 11:54:39;;;;;;;6.03;1.60;;;;;;;;;;5011242;28;20044;-89
2023/12/09 11:57:05;;;;;;;6.55;1.67;;;;;;;;;;5011026;28;20445;-89
2023/12/09 11:59:31;;;;;;;9.68;1.95;;;;;;;;;;5013294;28;20041;-89
2023/12/09 12:01:59;;;;;;;5.80;2.55;;;;;;;;;;5014014;28;20037;-89
2023/12/09 12:04:33;;;;;;;5.28;1.58;;;;;;;;;;5011640;28;20453;-88
2023/12/09 12:06:59;;;;;;;5.72;1.50;;;;;;;;;;5040170;28;20102;-89
2023/12/09 12:09:25;;;;;;;4.07;1.67;;;;;;;;;;5028170;28;20038;-89
2023/12/09 12:11:51;;;;;;;5.90;2.03;;;;;;;;;;5028708;28;20040;-89
2023/12/09 12:14:17;;;;;;;4.25;1.38;;;;;;;;;;5030871;28;20071;-88
2023/12/09 12:16:43;;;;;;;5.07;1.70;;;;;;;;;;5010540;28;20072;-88
2023/12/09 12:19:09;;;;;;;5.18;1.40;;;;;;;;;;5012820;28;20041;-88
2023/12/09 12:21:35;;;;;;;3.78;1.42;;;;;;;;;;5028580;28;20045;-88
2023/12/09 12:24:05;;;;;;;4.57;1.60;;;;;;;;;;5024233;28;20029;-88
2023/12/09 12:26:31;;;;;;;3.42;1.42;;;;;;;;;;5007665;28;20037;-88
2023/12/09 12:28:57;;;;;;;5.07;1.58;;;;;;;;;;5009792;28;20061;-88
2023/12/09 12:31:23;;;;;;;5.43;1.50;;;;;;;;;;5029609;28;20055;-89
2023/12/09 12:33:49;;;;;;;5.63;1.60;;;;;;;;;;5024087;28;20490;-89
2023/12/09 12:36:16;;;;;;;2.97;1.13;;;;;;;;;;5030050;28;20495;-88
2023/12/09 12:38:42;;;;;;;2.63;1.13;;;;;;;;;;5010942;28;20062;-88
2023/12/09 12:41:09;;;;;;;1.92;1.17;;;;;;;;;;5006933;28;20311;-88
2023/12/09 12:43:35;;;;;;;7.75;1.70;;;;;;;;;;5013551;28;20041;-87
2023/12/09 12:46:01;;;;;;;7.72;3.30;;;;;;;;;;5015420;28;20057;-87
2023/12/09 12:48:27;;;;;;;2.45;1.23;;;;;;;;;;5011500;28;20033;-86
2023/12/09 12:50:53;;;;;;;6.50;1.60;;;;;;;;;;5006879;28;20164;-85
2023/12/09 12:53:22;;;;;;;4.55;1.50;;;;;;;;;;5022906;28;20047;-85
2023/12/09 12:55:48;;;;;;;3.30;0.98;;;;;;;;;;5040636;28;20443;-87
2023/12/09 12:58:15;;;;;;;3.22;1.30;;;;;;;;;;5011796;28;20426;-85
2023/12/09 13:00:41;;;;;;;5.10;2.08;;;;;;;;;;5022778;28;20140;-85
2023/12/09 13:03:07;;;;;;;1.95;1.13;;;;;;;;;;5021453;28;20444;-88
2023/12/09 13:05:34;;;;;;;3.78;1.25;;;;;;;;;;5029056;28;20064;-87
2023/12/09 13:08:00;;;;;;;6.38;1.55;;;;;;;;;;5024686;28;20045;-86
2023/12/09 13:10:26;;;;;;;2.97;1.20;;;;;;;;;;5040194;28;20431;-87
2023/12/09 13:12:54;;;;;;;4.40;1.33;;;;;;;;;;5005770;28;20154;-87
2023/12/09 13:15:21;;;;;;;3.20;0.98;;;;;;;;;;5026745;28;20045;-88
2023/12/09 13:17:47;;;;;;;2.88;1.48;;;;;;;;;;5024648;28;20186;-88
2023/12/09 13:20:13;;;;;;;4.50;1.20;;;;;;;;;;5005189;28;20037;-88
2023/12/09 13:22:39;;;;;;;6.72;1.50;;;;;;;;;;5025157;28;20068;-88
2023/12/09 13:25:06;;;;;;;3.75;1.40;;;;;;;;;;5006742;28;20071;-88
2023/12/09 13:27:33;;;;;;;3.70;1.33;;;;;;;;;;5029437;28;20060;-88
2023/12/09 13:30:00;;;;;;;5.07;1.10;;;;;;;;;;5034629;28;20404;-88
2023/12/09 13:32:26;;;;;;;4.78;1.38;;;;;;;;;;5017433;28;20061;-88
2023/12/09 13:34:52;;;;;;;4.03;1.30;;;;;;;;;;5015605;28;20080;-87
2023/12/09 13:37:18;;;;;;;4.72;1.42;;;;;;;;;;5034066;28;20049;-88
2023/12/09 13:39:44;;;;;;;3.10;0.95;;;;;;;;;;5036046;28;20458;-88
2023/12/09 13:42:12;;;;;;;4.68;1.20;;;;;;;;;;5027984;28;20029;-88
2023/12/09 13:44:38;;;;;;;7.65;1.50;;;;;;;;;;5016520;28;20053;-87
2023/12/09 13:47:04;;;;;;;4.07;1.13;;;;;;;;;;5028131;28;20030;-87
2023/12/09 13:49:30;;;;;;;4.50;1.52;;;;;;;;;;5034043;28;20057;-87
2023/12/09 13:51:56;;;;;;;4.43;1.40;;;;;;;;;;5039807;28;20054;-87
2023/12/09 13:54:23;;;;;;;1.58;1.00;;;;;;;;;;5028693;28;20056;-87
2023/12/09 13:56:49;;;;;;;3.35;0.90;;;;;;;;;;5027167;28;20044;-85
2023/12/09 13:59:16;;;;;;;3.72;1.20;;;;;;;;;;5024754;28;20041;-86
2023/12/09 14:01:42;;;;;;;4.78;1.30;;;;;;;;;;5029824;28;20509;-87
2023/12/09 14:04:08;;;;;;;6.47;1.55;;;;;;;;;;5023318;28;20120;-87
2023/12/09 14:06:35;;;;;;;2.88;1.00;;;;;;;;;;5026964;28;20043;-87
2023/12/09 14:09:01;;;;;;;3.00;0.98;;;;;;;;;;5026684;28;20052;-87
2023/12/09 14:11:27;;;;;;;5.10;1.02;;;;;;;;;;5030858;28;20043;-86
2023/12/09 14:13:56;;;;;;;2.67;1.23;;;;;;;;;;5046752;28;20087;-86
2023/12/09 14:16:22;;;;;;;3.25;1.60;;;;;;;;;;5027183;28;20072;-86
2023/12/09 14:18:48;;;;;;;3.08;0.90;;;;;;;;;;5017336;28;20045;-84
2023/12/09 14:21:14;;;;;;;2.97;1.60;;;;;;;;;;5015745;28;20534;-85
2023/12/09 14:23:41;;;;;;;4.20;1.50;;;;;;;;;;5018908;28;20033;-84
2023/12/09 14:26:08;;;;;;;3.70;1.45;;;;;;;;;;5034098;28;20056;-84
2023/12/09 14:28:34;;;;;;;6.32;1.77;;;;;;;;;;5019207;28;20049;-85
2023/12/09 14:31:00;;;;;;;4.95;1.45;;;;;;;;;;5013481;28;20033;-84